Latest Weather Observations for Point Perpendicular

IDN60801

Issued at 10:22 am EDT Sunday 17 February 2019 (issued every 10 minutes, with the page automatically refreshed every 10 minutes)

About weather observations | Map of weather stations | Latest weather observations for NSW | Other Formats
Station Details ID: 068151 Name: POINT PERPENDICULAR AWS Lat: -35.09 Lon: 150.80 Height: 85.0 m
Data from the previous 72 hours. | See also: Recent months at Point Perpendicular
Date/Time
EDT
Temp
°C
App
Temp
°C
Dew
Point
°C
Rel
Hum
%
Delta-T
°C
Wind Press
QNH
hPa
Press
MSL
hPa
Rain since
9am
mm
Dir  Spd
km/h
Gust
km/h
Spd
kts
Gust
kts
17/10:00am 24.3 23.0 17.3 65 4.4 N 20 28 11 15 1014.2 1013.9 0.0
17/09:30am 23.4 21.9 16.7 66 4.1 N 20 28 11 15 1014.3 1014.0 0.0
17/09:00am 22.9 20.6 16.7 68 3.8 N 24 33 13 18 1014.3 1014.0 0.0
17/08:30am 22.0 20.3 16.3 70 3.5 N 20 28 11 15 1014.2 1013.9 0.0
17/08:00am 21.0 19.9 16.4 75 2.8 N 17 24 9 13 1014.2 1013.9 0.0
17/07:30am 20.2 20.0 16.8 81 2.1 N 13 19 7 10 1013.9 1013.5 0.0
17/07:00am 19.9 18.9 16.7 82 1.9 N 17 24 9 13 1013.9 1013.5 0.0
17/06:30am 20.0 18.8 17.0 83 1.8 N 19 28 10 15 1013.5 1013.1 0.0
17/06:00am 19.9 18.5 16.5 81 2.1 N 19 26 10 14 1013.4 1013.0 0.0
17/05:30am 20.0 18.2 17.0 83 1.8 N 22 32 12 17 1013.3 1012.9 0.0
17/05:00am 20.0 18.2 17.0 83 1.8 N 22 32 12 17 1013.2 1012.8 0.0
17/04:30am 19.9 18.4 16.7 82 1.9 N 20 28 11 15 1013.3 1012.9 0.0
17/04:00am 19.8 18.5 16.8 83 1.8 N 19 28 10 15 1013.8 1013.4 0.0
17/03:30am 20.2 18.9 16.8 81 2.1 N 19 32 10 17 1014.1 1013.8 0.0
17/03:00am 20.3 18.8 16.7 80 2.2 N 20 30 11 16 1014.2 1013.9 0.0
17/02:30am 20.5 19.1 16.9 80 2.2 N 20 30 11 16 1014.3 1014.0 0.0
17/02:00am 20.7 18.6 17.1 80 2.2 N 24 33 13 18 1014.6 1014.3 0.0
17/01:30am 20.9 18.4 17.1 79 2.3 N 26 37 14 20 1014.7 1014.4 0.0
17/01:00am 21.1 18.9 16.9 77 2.6 N 24 33 13 18 1015.2 1014.9 0.0
17/12:30am 21.3 19.1 16.9 76 2.7 N 24 35 13 19 1015.8 1015.5 0.0
17/12:00am 21.5 18.5 16.9 75 2.8 N 28 37 15 20 1015.9 1015.6 0.0
 
Date/Time
EDT
Temp
°C
App
Temp
°C
Dew
Point
°C
Rel
Hum
%
Delta-T
°C
Wind Press
QNH
hPa
Press
MSL
hPa
Rain since
9am
mm
Dir  Spd
km/h
Gust
km/h
Spd
kts
Gust
kts
16/11:30pm 21.5 18.8 16.7 74 2.9 N 26 39 14 21 1016.1 1015.8 0.0
16/11:00pm 21.6 19.4 16.8 74 2.9 N 24 35 13 19 1016.3 1016.0 0.0
16/10:30pm 21.8 19.7 17.2 75 2.8 N 24 35 13 19 1016.5 1016.2 0.0
16/10:00pm 21.8 19.6 17.0 74 2.9 N 24 37 13 20 1016.8 1016.5 0.0
16/09:30pm 21.7 19.6 17.1 75 2.8 NNE 24 32 13 17 1016.7 1016.4 0.0
16/09:00pm 21.8 20.3 17.8 78 2.5 NNE 22 30 12 16 1016.5 1016.2 0.0
16/08:30pm 22.0 20.9 17.8 77 2.6 NNE 20 28 11 15 1016.6 1016.3 0.0
16/08:00pm 22.1 20.9 17.5 75 2.8 NNE 20 32 11 17 1016.3 1016.0 0.0
16/07:30pm 22.4 20.3 17.1 72 3.3 NNE 24 37 13 20 1016.0 1015.7 0.0
16/07:00pm 23.0 20.5 17.0 69 3.7 NNE 26 37 14 20 1016.2 1015.9 0.0
16/06:30pm 23.4 21.3 17.2 68 3.8 NNE 24 37 13 20 1016.2 1015.9 0.0
16/06:00pm 24.0 21.8 17.0 65 4.3 NNE 24 35 13 19 1016.5 1016.2 0.0
16/05:30pm 24.3 21.6 16.6 62 4.7 NNE 26 35 14 19 1016.7 1016.4 0.0
16/05:00pm 23.9 21.3 16.9 65 4.3 NE 26 35 14 19 1016.9 1016.6 0.0
16/04:30pm 23.7 22.0 17.2 67 4.0 NE 22 32 12 17 1017.4 1017.1 0.0
16/04:00pm 24.8 23.3 17.8 65 4.4 NE 22 32 12 17 1017.8 1017.5 0.0
16/03:30pm 24.4 22.3 17.1 63 4.5 NE 24 33 13 18 1018.0 1017.7 0.0
16/03:00pm 24.5 22.0 17.0 63 4.6 NE 26 35 14 19 1018.4 1018.1 0.0
16/02:30pm 24.4 23.8 17.6 66 4.3 NE 17 30 9 16 1019.2 1018.9 0.0
16/02:00pm 24.0 22.6 17.0 65 4.3 NE 20 28 11 15 1019.6 1019.3 0.0
16/01:30pm 24.5 23.3 17.0 63 4.7 NNE 19 26 10 14 1019.9 1019.6 0.0
16/01:00pm 24.0 23.6 18.0 69 3.8 NE 17 24 9 13 1020.2 1019.9 0.0
16/12:30pm 22.6 21.7 16.9 70 3.5 NE 17 24 9 13 1020.6 1020.3 0.0
16/12:00pm 23.1 22.7 16.2 65 4.2 NNE 13 24 7 13 1020.9 1020.6 0.0
16/11:30am 22.7 23.1 16.3 67 3.9 NE 9 20 5 11 1021.4 1021.1 0.0
16/11:00am 22.9 23.5 16.7 68 3.8 ENE 9 15 5 8 1021.6 1021.3 0.0
16/10:30am 21.8 21.9 15.4 67 3.8 ENE 9 11 5 6 1021.8 1021.5 0.0
16/10:00am 21.9 22.7 14.8 64 4.2 NNW 4 11 2 6 1021.7 1021.4 0.0
16/09:30am 21.1 22.0 14.0 64 4.1 NW 2 7 1 4 1022.0 1021.7 0.0
16/09:00am 20.6 21.2 14.3 67 3.7 WNW 4 9 2 5 1022.0 1021.7 0.0
16/08:30am 20.0 21.0 14.4 70 3.3 W 2 6 1 3 1022.1 1021.8 0.0
16/08:00am 19.4 20.3 15.1 76 2.5 SW 4 4 2 2 1022.0 1021.7 0.0
16/07:30am 19.3 20.6 15.2 77 2.4 SSW 2 4 1 2 1021.9 1021.6 0.0
16/07:00am 18.6 19.4 14.9 79 2.2 SSW 4 4 2 2 1021.9 1021.6 0.0
16/06:30am 18.4 18.4 14.1 76 2.5 SW 7 7 4 4 1021.7 1021.4 0.0
16/06:00am 18.7 19.7 15.4 81 1.9 SW 4 6 2 3 1021.5 1021.2 0.0
16/05:30am 18.7 19.6 15.0 79 2.2 WSW 4 7 2 4 1021.5 1021.2 0.0
16/05:00am 19.0 21.1 16.2 84 1.7 CALM 0 4 0 2 1021.5 1021.2 0.0
16/04:30am 19.2 20.9 16.1 82 1.9 WNW 2 4 1 2 1021.7 1021.4 0.0
16/04:00am 19.2 20.3 15.7 80 2.1 WNW 4 4 2 2 1021.7 1021.4 0.0
16/03:30am 19.4 21.0 15.9 80 2.1 W 2 4 1 2 1021.8 1021.5 0.0
16/03:00am 18.5 19.4 15.2 81 1.9 WNW 4 4 2 2 1021.8 1021.5 0.0
16/02:30am 18.6 19.7 15.5 82 1.8 WNW 4 6 2 3 1022.0 1021.7 0.0
16/02:00am 19.3 18.8 15.0 76 2.5 NNW 11 11 6 6 1022.4 1022.1 0.0
16/01:30am 19.5 19.0 15.0 75 2.6 N 11 13 6 7 1022.8 1022.5 0.0
16/01:00am 19.4 19.1 15.5 78 2.3 N 11 13 6 7 1023.1 1022.8 0.0
16/12:30am 19.5 19.7 15.8 79 2.2 N 9 13 5 7 1023.4 1023.1 0.0
16/12:00am 19.6 19.5 15.9 79 2.2 N 11 11 6 6 1023.7 1023.3 0.0
 
Date/Time
EDT
Temp
°C
App
Temp
°C
Dew
Point
°C
Rel
Hum
%
Delta-T
°C
Wind Press
QNH
hPa
Press
MSL
hPa
Rain since
9am
mm
Dir  Spd
km/h
Gust
km/h
Spd
kts
Gust
kts
15/11:30pm 19.7 18.9 15.1 75 2.7 NNE 13 15 7 8 1023.7 1023.3 0.0
15/11:00pm 19.7 18.9 15.1 75 2.7 NNE 13 15 7 8 1023.9 1023.5 0.0
15/10:30pm 20.0 19.7 15.4 75 2.7 NNE 11 15 6 8 1024.1 1023.7 0.0
15/10:00pm 20.3 20.1 15.7 75 2.7 NNE 11 13 6 7 1024.2 1023.8 0.0
15/09:30pm 20.4 20.1 15.4 73 3.0 NNE 11 13 6 7 1024.0 1023.6 0.0
15/09:00pm 20.4 20.3 16.0 76 2.6 NNE 11 13 6 7 1023.4 1023.1 0.0
15/08:30pm 20.4 20.5 16.4 78 2.4 NNE 11 13 6 7 1023.2 1022.9 0.0
15/08:00pm 21.3 21.8 16.5 74 2.9 NE 9 13 5 7 1023.0 1022.7 0.0
15/07:30pm 21.7 21.8 16.6 73 3.1 NE 11 15 6 8 1022.7 1022.4 0.0
15/07:00pm 22.3 21.4 16.8 71 3.4 NE 17 20 9 11 1022.4 1022.1 0.0
15/06:30pm 22.7 21.6 16.3 67 3.9 NE 17 24 9 13 1022.2 1021.9 0.0
15/06:00pm 23.3 21.9 16.6 66 4.1 NE 19 26 10 14 1022.2 1021.9 0.0
15/05:30pm 23.2 21.6 16.0 64 4.4 NE 19 30 10 16 1022.1 1021.8 0.0
15/05:00pm 23.8 22.4 16.6 64 4.4 NE 19 24 10 13 1022.2 1021.9 0.0
15/04:30pm 24.1 23.4 17.4 66 4.2 NE 17 24 9 13 1022.4 1022.1 0.0
15/04:00pm 23.3 23.0 17.3 69 3.7 ENE 15 22 8 12 1022.6 1022.3 0.0
15/03:30pm 22.8 22.3 16.8 69 3.7 E 15 20 8 11 1022.6 1022.3 0.0
15/03:00pm 22.4 21.6 16.2 68 3.8 ENE 15 22 8 12 1022.9 1022.6 0.0
15/02:30pm 23.6 23.6 17.3 67 3.9 E 13 19 7 10 1023.2 1022.9 0.0
15/02:00pm 23.1 23.8 17.1 69 3.7 E 9 15 5 8 1023.6 1023.2 0.0
15/01:30pm 22.8 23.2 17.3 71 3.4 SE 11 19 6 10 1023.7 1023.3 0.0
15/01:00pm 21.4 21.7 15.9 71 3.3 ESE 9 17 5 9 1023.9 1023.5 0.0
15/12:30pm 22.6 22.5 16.9 70 3.5 SSE 13 19 7 10 1024.2 1023.8 0.0
15/12:00pm 22.3 21.9 17.2 73 3.1 SSE 15 19 8 10 1024.6 1024.3 0.0
15/11:30am 21.8 21.5 16.5 72 3.2 S 13 19 7 10 1024.7 1024.4 0.0
15/11:00am 21.8 21.2 16.7 73 3.1 S 15 19 8 10 1025.0 1024.7 0.0
15/10:30am 21.2 20.1 16.4 74 2.9 S 17 22 9 12 1024.9 1024.6 0.0
15/10:00am 20.8 20.0 16.0 74 2.9 SSW 15 20 8 11 1024.6 1024.3 0.0
15/09:30am 20.5 20.4 15.9 75 2.8 SW 11 17 6 9 1024.6 1024.3 0.0
15/09:00am 19.9 20.4 15.5 76 2.6 SW 7 13 4 7 1024.4 1024.0 0.0
15/08:30am 19.8 19.9 15.4 76 2.6 WSW 9 13 5 7 1024.3 1023.9 0.0
15/08:00am 19.2 19.6 15.3 78 2.3 SW 7 11 4 6 1024.1 1023.7 0.0
15/07:30am 18.6 19.2 15.3 81 1.9 SW 6 7 3 4 1023.8 1023.4 0.0
15/07:00am 18.4 18.8 15.3 82 1.8 SW 7 11 4 6 1023.6 1023.2 0.0
15/06:30am 18.4 19.1 15.5 83 1.7 SW 6 9 3 5 1023.2 1022.9 0.0
15/06:00am 18.4 19.1 15.5 83 1.7 WSW 6 9 3 5 1023.1 1022.8 0.0
15/05:30am 18.4 19.0 15.8 85 1.5 WSW 7 11 4 6 1022.8 1022.5 0.0
15/05:00am 18.5 19.5 16.3 87 1.3 WSW 6 11 3 6 1022.6 1022.3 0.0
15/04:30am 18.3 19.0 16.1 87 1.3 WSW 7 11 4 6 1022.7 1022.4 0.0
15/04:00am 18.5 19.6 16.7 89 1.1 WSW 6 9 3 5 1022.6 1022.3 0.0
15/03:30am 18.7 19.7 16.9 89 1.1 WSW 7 11 4 6 1022.6 1022.3 0.0
15/03:00am 18.8 20.6 16.4 86 1.4 W 2 4 1 2 1022.4 1022.1 0.0
15/02:30am 19.0 19.2 14.7 76 2.5 NW 7 9 4 5 1022.3 1022.0 0.0
15/02:00am 18.5 18.5 14.2 76 2.5 N 7 7 4 4 1022.4 1022.1 0.0
15/01:30am 18.5 18.8 14.4 77 2.4 NNW 6 7 3 4 1022.5 1022.2 0.0
15/01:00am 18.6 18.8 14.7 78 2.3 N 7 7 4 4 1022.6 1022.3 0.0
15/12:30am 19.1 19.3 14.8 76 2.5 NNE 7 9 4 5 1022.4 1022.1 0.0
15/12:00am 19.8 20.0 14.6 72 3.0 NNE 7 11 4 6 1022.4 1022.1 0.0
 
Date/Time
EDT
Temp
°C
App
Temp
°C
Dew
Point
°C
Rel
Hum
%
Delta-T
°C
Wind Press
QNH
hPa
Press
MSL
hPa
Rain since
9am
mm
Dir  Spd
km/h
Gust
km/h
Spd
kts
Gust
kts
14/11:30pm 20.0 19.3 14.4 70 3.3 NNE 11 15 6 8 1022.3 1022.0 0.0
14/11:00pm 20.1 19.5 14.5 70 3.3 NNE 11 17 6 9 1022.2 1021.9 0.0
14/10:30pm 20.3 19.2 14.4 69 3.4 NNE 13 19 7 10 1022.0 1021.7 0.0
14/10:00pm 20.5 19.0 14.2 67 3.7 NE 15 20 8 11 1021.8 1021.5 0.0
14/09:30pm 20.6 18.7 14.3 67 3.7 NE 17 22 9 12 1021.3 1021.0 0.0
14/09:00pm 20.8 18.5 14.2 66 3.8 NNE 19 26 10 14 1020.5 1020.2 0.0
14/08:30pm 20.5 18.2 14.2 67 3.7 NNE 19 26 10 14 1019.9 1019.6 0.0
14/08:00pm 20.6 18.2 14.3 67 3.7 NNE 20 30 11 16 1019.4 1019.1 0.0
14/07:30pm 21.2 18.7 14.1 64 4.1 NNE 20 30 11 16 1018.9 1018.6 0.0
14/07:00pm 21.9 18.5 13.8 60 4.7 NNE 24 30 13 16 1018.5 1018.2 0.0
14/06:30pm 22.4 19.9 14.0 59 4.9 NNE 20 30 11 16 1018.2 1017.9 0.0
14/06:00pm 22.7 19.4 14.0 58 5.1 NNE 24 32 13 17 1018.1 1017.8 0.0
14/05:30pm 22.8 20.2 14.9 61 4.7 NE 22 33 12 18 1018.0 1017.7 0.0
14/05:00pm 22.7 20.1 15.0 61 4.6 NE 22 32 12 17 1018.1 1017.8 0.0
14/04:30pm 22.4 20.3 15.3 64 4.2 ENE 20 26 11 14 1018.3 1018.0 0.0
14/04:00pm 21.6 19.1 14.0 62 4.4 ENE 20 30 11 16 1018.3 1018.0 0.0
14/03:30pm 21.8 19.4 13.7 60 4.7 ENE 19 26 10 14 1018.3 1018.0 0.0
14/03:00pm 21.5 19.2 12.9 58 4.9 ENE 17 24 9 13 1018.6 1018.3 0.0
14/02:30pm 21.3 18.9 12.7 58 4.9 E 17 22 9 12 1018.9 1018.6 0.0
14/02:00pm 21.2 19.0 12.1 56 5.1 ENE 15 20 8 11 1019.1 1018.8 0.0
14/01:30pm 21.3 20.0 12.4 57 5.0 ENE 11 17 6 9 1019.4 1019.1 0.0
14/01:00pm 21.7 20.4 12.5 56 5.2 ESE 11 17 6 9 1019.8 1019.5 0.0
14/12:30pm 20.3 19.1 11.5 57 4.9 SE 9 15 5 8 1020.1 1019.8 0.0
14/12:00pm 20.9 19.5 12.3 58 4.8 SE 11 17 6 9 1020.2 1019.9 0.0
14/11:30am 20.3 19.6 12.0 59 4.6 SSE 7 13 4 7 1020.4 1020.1 0.0
14/11:00am 20.7 19.5 12.9 61 4.4 SSE 11 17 6 9 1020.4 1020.1 0.0
14/10:30am 19.6 18.8 11.6 60 4.4 SSE 7 13 4 7 1020.4 1020.1 0.0

Other Formats:

Comma delimited format used in spreadsheet applications
http://www.bom.gov.au/fwo/IDN60801/IDN60801.95940.axf

JavaScript Object Notation format (JSON) in row-major order
http://www.bom.gov.au/fwo/IDN60801/IDN60801.95940.json